createdAt,value
2018-03-06T00:01:47.214Z,9.14
2018-03-06T00:04:14.929Z,9.15
2018-03-06T00:06:42.470Z,9.12
2018-03-06T00:09:09.989Z,9.13
2018-03-06T00:11:37.507Z,9.08
2018-03-06T00:14:05.619Z,9.10
2018-03-06T00:16:33.199Z,9.10
2018-03-06T00:19:00.885Z,9.04
2018-03-06T00:21:28.495Z,9.05
2018-03-06T00:23:56.073Z,9.01
2018-03-06T00:26:24.463Z,9.02
2018-03-06T00:28:53.139Z,8.95
2018-03-06T00:31:20.792Z,8.96
2018-03-06T00:33:48.358Z,8.96
2018-03-06T00:36:15.900Z,8.94
2018-03-06T00:38:43.568Z,8.97
2018-03-06T00:41:11.177Z,8.99
2018-03-06T00:43:38.749Z,8.96
2018-03-06T00:46:06.371Z,8.94
2018-03-06T00:48:33.964Z,8.93
2018-03-06T00:51:01.511Z,8.92
2018-03-06T00:53:29.070Z,8.92
2018-03-06T00:55:56.640Z,8.92
2018-03-06T00:58:24.234Z,8.89
2018-03-06T01:00:51.983Z,8.94
2018-03-06T01:03:19.501Z,8.97
2018-03-06T01:05:47.046Z,8.94
2018-03-06T01:08:14.681Z,8.90
2018-03-06T01:10:42.248Z,8.98
2018-03-06T01:13:09.866Z,9.00
2018-03-06T01:15:37.448Z,8.97
2018-03-06T01:18:05.030Z,8.93
2018-03-06T01:20:32.611Z,8.90
2018-03-06T01:23:00.428Z,8.98
2018-03-06T01:25:28.017Z,9.01
2018-03-06T01:27:55.672Z,9.00
2018-03-06T01:30:23.278Z,8.99
2018-03-06T01:32:50.847Z,8.98
2018-03-06T01:35:18.441Z,9.00
2018-03-06T01:37:45.988Z,9.02
2018-03-06T01:40:13.545Z,9.01
2018-03-06T01:42:41.095Z,8.98
2018-03-06T01:45:08.637Z,8.94
2018-03-06T01:47:36.225Z,9.00
2018-03-06T01:50:03.856Z,9.02
2018-03-06T01:52:31.470Z,9.02
2018-03-06T01:54:59.104Z,9.03
2018-03-06T01:57:26.685Z,9.01
2018-03-06T01:59:54.232Z,9.08
2018-03-06T02:02:21.799Z,9.09
2018-03-06T02:04:49.384Z,9.10
2018-03-06T02:07:16.950Z,9.09
2018-03-06T02:09:44.529Z,9.13
2018-03-06T02:12:12.111Z,9.15
2018-03-06T02:14:39.851Z,9.17
2018-03-06T02:17:07.430Z,9.16
2018-03-06T02:19:34.997Z,9.17
2018-03-06T02:22:02.536Z,9.18
2018-03-06T02:24:30.073Z,9.21
2018-03-06T02:26:57.696Z,9.10
2018-03-06T02:29:25.233Z,9.22
2018-03-06T02:31:52.827Z,9.22
2018-03-06T02:34:20.673Z,9.22
2018-03-06T02:36:48.224Z,9.23
2018-03-06T02:39:15.934Z,9.23
2018-03-06T02:41:43.501Z,9.23
2018-03-06T02:44:11.070Z,9.22
2018-03-06T15:26:01.250Z,16.31
2018-03-06T15:28:28.795Z,16.46
2018-03-06T15:30:56.354Z,16.50
2018-03-06T15:33:23.953Z,16.37
2018-03-06T15:35:51.525Z,16.46
2018-03-06T15:38:19.065Z,16.49
2018-03-06T15:40:46.609Z,16.49
2018-03-06T15:43:14.177Z,16.47
2018-03-06T15:45:41.726Z,16.44
2018-03-06T15:48:09.339Z,16.42
2018-03-06T15:50:36.880Z,16.34
2018-03-06T15:53:04.433Z,16.24
2018-03-06T15:55:32.091Z,16.26
2018-03-06T15:57:59.627Z,16.11
2018-03-06T16:00:27.201Z,16.22
2018-03-06T16:02:54.718Z,16.16
2018-03-06T16:05:22.249Z,16.13
2018-03-06T16:07:49.770Z,15.83
2018-03-06T16:10:17.309Z,15.93
2018-03-06T16:12:44.840Z,15.95
2018-03-06T16:15:12.404Z,15.96
2018-03-06T16:17:39.909Z,15.90
2018-03-06T16:20:07.418Z,15.90
2018-03-06T16:22:34.960Z,15.83
2018-03-06T16:25:02.512Z,15.81
2018-03-06T16:27:30.035Z,15.74
2018-03-06T16:29:57.578Z,15.70
2018-03-06T16:32:25.108Z,15.69
2018-03-06T16:34:52.649Z,15.62
2018-03-06T16:37:20.168Z,15.66
2018-03-06T16:39:47.682Z,15.63
2018-03-06T16:42:15.219Z,15.48
2018-03-06T16:44:42.765Z,15.29
2018-03-06T16:47:10.320Z,15.42
2018-03-06T16:49:37.942Z,15.49
2018-03-06T16:52:05.562Z,15.34
2018-03-06T16:54:33.124Z,15.21
2018-03-06T16:57:00.691Z,15.06
2018-03-06T16:59:29.295Z,14.99
2018-03-06T17:01:56.827Z,14.41
2018-03-06T17:04:24.347Z,14.49
2018-03-06T17:06:51.924Z,14.66
2018-03-06T17:09:19.497Z,14.06
2018-03-06T17:11:47.181Z,14.16
2018-03-06T17:14:15.013Z,14.26
2018-03-06T17:16:42.666Z,14.28
2018-03-06T17:19:10.426Z,14.35
2018-03-06T17:21:37.988Z,14.34
2018-03-06T17:24:05.560Z,14.30
2018-03-06T17:26:33.135Z,14.32
2018-03-06T17:29:02.356Z,14.28
2018-03-06T17:31:29.955Z,14.23
2018-03-06T17:33:57.481Z,14.23
2018-03-06T17:36:25.053Z,14.22
2018-03-06T17:38:52.615Z,14.20
2018-03-06T17:41:21.111Z,14.24
2018-03-06T17:43:57.296Z,14.16
2018-03-06T17:46:25.181Z,14.10
2018-03-06T17:48:53.152Z,14.10
2018-03-06T17:51:20.956Z,14.10
2018-03-06T17:53:48.989Z,14.08
2018-03-06T17:56:16.662Z,14.02
2018-03-06T17:58:44.265Z,14.04
2018-03-06T18:01:11.831Z,13.95
2018-03-06T18:03:39.360Z,13.96
2018-03-06T18:06:07.048Z,13.88
2018-03-06T18:08:34.641Z,13.88
2018-03-06T18:11:02.188Z,13.86
2018-03-06T18:13:29.757Z,13.85
2018-03-06T18:15:57.268Z,13.72
2018-03-06T18:18:24.877Z,13.79
2018-03-06T18:20:52.429Z,13.75
2018-03-06T18:23:22.607Z,13.74
2018-03-06T18:25:50.210Z,13.71
2018-03-06T18:28:19.094Z,13.68
2018-03-06T18:30:46.821Z,13.64
2018-03-06T18:33:14.394Z,13.59
2018-03-06T18:35:41.933Z,13.52
2018-03-06T18:38:09.447Z,13.37
2018-03-06T18:40:37.644Z,13.45
2018-03-06T18:43:09.309Z,13.39
2018-03-06T18:45:40.032Z,13.30
2018-03-06T18:48:08.660Z,13.27
2018-03-06T18:50:59.771Z,13.22
2018-03-06T18:53:27.824Z,13.20
2018-03-06T18:55:58.507Z,13.12
2018-03-06T18:58:26.151Z,13.17
2018-03-06T19:01:19.444Z,13.16
2018-03-06T19:03:58.919Z,13.13
2018-03-06T19:06:36.174Z,13.11
2018-03-06T19:09:03.728Z,13.05
2018-03-06T19:11:31.298Z,13.00
2018-03-06T19:13:58.819Z,13.00
2018-03-06T19:16:26.353Z,12.91
2018-03-06T19:18:54.055Z,12.89
2018-03-06T19:21:21.624Z,12.76
2018-03-06T19:23:49.217Z,12.71
2018-03-06T19:26:17.622Z,12.65
2018-03-06T19:28:45.229Z,13.57
2018-03-06T19:31:12.982Z,13.99
2018-03-06T19:33:42.186Z,13.79
2018-03-06T19:36:10.576Z,13.56
2018-03-06T19:41:01.262Z,13.28
2018-03-06T19:43:29.091Z,13.29
2018-03-06T19:45:57.726Z,13.27
2018-03-06T19:48:26.246Z,13.19
2018-03-06T19:50:54.072Z,13.12
2018-03-06T19:53:21.796Z,13.02
2018-03-06T19:55:50.174Z,12.94
2018-03-06T19:58:18.439Z,13.01
2018-03-06T20:00:47.206Z,13.33
2018-03-06T20:03:15.059Z,13.06
2018-03-06T20:05:42.877Z,13.94
2018-03-06T20:08:11.462Z,13.98
2018-03-06T20:10:39.252Z,13.80
2018-03-06T20:13:08.117Z,13.66
2018-03-06T20:15:37.159Z,13.52
2018-03-06T20:18:05.133Z,13.47
2018-03-06T20:20:33.596Z,13.35
2018-03-06T20:23:01.362Z,13.24
2018-03-06T20:25:34.520Z,13.09
2018-03-06T20:28:02.498Z,13.10
2018-03-06T20:30:35.705Z,13.02
2018-03-06T20:33:08.768Z,12.92
2018-03-06T20:35:36.690Z,12.88
2018-03-06T20:38:04.789Z,12.75
2018-03-06T20:40:34.280Z,12.70
2018-03-06T20:43:01.869Z,12.57
2018-03-06T20:45:37.276Z,12.56
2018-03-06T20:48:04.987Z,12.49
2018-03-06T20:50:32.575Z,12.41
2018-03-06T20:56:05.399Z,12.31
2018-03-06T20:58:33.036Z,12.29
2018-03-06T21:01:00.597Z,12.26
2018-03-06T21:03:28.212Z,12.23
2018-03-06T21:05:55.794Z,12.22
2018-03-06T21:08:23.361Z,12.22
2018-03-06T21:10:50.906Z,12.18
2018-03-06T21:13:18.431Z,12.17
2018-03-06T21:15:46.078Z,12.16
2018-03-06T21:18:13.685Z,12.15
2018-03-06T21:20:42.225Z,12.11
2018-03-06T21:23:09.794Z,12.08
2018-03-06T21:25:37.806Z,12.12
2018-03-06T21:28:05.555Z,12.09
2018-03-06T21:30:33.151Z,12.06
2018-03-06T21:33:00.807Z,12.06
2018-03-06T21:35:29.579Z,12.09
2018-03-06T21:37:57.181Z,12.07
2018-03-06T21:40:25.880Z,12.10
2018-03-06T21:42:55.723Z,12.08
2018-03-06T21:45:23.315Z,12.07
2018-03-06T21:47:50.890Z,12.06
2018-03-06T21:50:18.670Z,12.06
2018-03-06T21:52:46.228Z,12.01
2018-03-06T21:55:13.744Z,12.08
2018-03-06T21:57:41.274Z,12.04
2018-03-06T22:00:08.904Z,12.00
2018-03-06T22:02:36.578Z,12.10
2018-03-06T22:05:04.374Z,12.12
2018-03-06T22:07:31.904Z,12.13
2018-03-06T22:09:59.545Z,12.14
2018-03-06T22:12:27.130Z,12.13
2018-03-06T22:14:54.651Z,12.15
2018-03-06T22:17:22.320Z,12.17
2018-03-06T22:19:49.884Z,12.19
2018-03-06T22:22:17.603Z,12.23
2018-03-06T22:24:45.205Z,12.26
2018-03-06T22:27:12.762Z,12.31
2018-03-06T22:29:40.357Z,12.31
2018-03-06T22:32:07.959Z,12.35
2018-03-06T22:34:35.553Z,12.40
2018-03-06T22:37:03.126Z,12.42
2018-03-06T22:39:30.654Z,12.43
2018-03-06T22:41:58.250Z,12.44
2018-03-06T22:44:25.808Z,12.48
2018-03-06T22:46:53.382Z,12.50
2018-03-06T22:49:20.966Z,12.55
2018-03-06T22:51:48.518Z,12.56
2018-03-06T22:54:16.098Z,12.61
2018-03-06T22:56:43.778Z,12.64
2018-03-06T22:59:11.313Z,12.62
2018-03-06T23:01:38.953Z,12.63
2018-03-06T23:04:06.522Z,12.60
2018-03-06T23:06:34.073Z,12.59
2018-03-06T23:09:01.615Z,12.51
2018-03-06T23:11:29.161Z,12.52
2018-03-06T23:13:56.725Z,12.53
2018-03-06T23:16:24.307Z,12.50
2018-03-06T23:18:51.818Z,12.45
2018-03-06T23:21:19.401Z,12.45
2018-03-06T23:23:46.977Z,12.45
2018-03-06T23:26:14.595Z,12.41
2018-03-06T23:28:42.142Z,12.38
2018-03-06T23:31:13.814Z,12.32
2018-03-06T23:33:41.540Z,12.36
2018-03-06T23:36:09.154Z,12.36
2018-03-06T23:38:36.681Z,12.30
2018-03-06T23:41:04.232Z,12.14
2018-03-06T23:43:31.905Z,12.26
2018-03-06T23:45:59.523Z,12.22
2018-03-06T23:48:27.077Z,12.20
2018-03-06T23:50:54.645Z,12.21
2018-03-06T23:53:22.208Z,12.17
2018-03-06T23:55:49.852Z,12.17
2018-03-06T23:58:17.413Z,12.17
